Terminal Aerodrome Forecast
Issued by NWS Medford, OR

Home | Current Version | Previous Version | Text Only | Print | Product List | Glossary On
Versions: 1 2 3 4 5 6 7 8 9 10 11 12
000
FTUS46 KMFR 230500
TAFMFR
TAF
KMFR 230520Z 2306/2406 VRB03KT P6SM SCT100 OVC250
     FM231800 VRB03KT P6SM OVC080
     FM240200 VRB03KT P6SM SCT040 OVC070=

USA.gov is the U.S. government's official web portal to all federal, state and local government web resources and services.